Time;durP1;ratioP1;P1;durP2;ratioP2;P2;SDS_P1;SDS_P2;PMS_P1;PMS_P2;Temp;Humidity;BMP_temperature;BMP_pressure;BME280_temperature;BME280_humidity;BME280_pressure;Samples;Min_cycle;Max_cycle;Signal;HPM_P1;HPM_P2
2021/04/20 00:00:15;;;;;;;14.57;9.57;;;9.50;99.30;;;;;;5034641;28;20437;-79
2021/04/20 00:02:40;;;;;;;18.25;10.80;;;9.40;99.50;;;;;;5016748;28;20088;-77
2021/04/20 00:05:10;;;;;;;13.10;9.70;;;9.50;99.60;;;;;;5033327;28;20057;-79
2021/04/20 00:07:36;;;;;;;14.65;9.73;;;9.40;99.70;;;;;;4998855;28;20057;-79
2021/04/20 00:10:07;;;;;;;18.52;11.15;;;9.30;99.90;;;;;;5016559;28;20043;-77
2021/04/20 00:12:33;;;;;;;15.05;10.18;;;9.30;99.90;;;;;;5016719;28;20362;-78
2021/04/20 00:14:58;;;;;;;18.40;10.82;;;9.30;99.90;;;;;;5016591;28;20032;-78
2021/04/20 00:17:24;;;;;;;15.63;10.13;;;9.30;99.90;;;;;;5033752;28;20029;-77
2021/04/20 00:19:50;;;;;;;16.88;10.60;;;9.30;99.90;;;;;;5014276;28;20539;-75
2021/04/20 00:22:15;;;;;;;17.20;10.45;;;9.30;99.90;;;;;;5013536;28;20057;-75
2021/04/20 00:24:41;;;;;;;16.33;10.85;;;9.20;99.90;;;;;;5024534;28;20079;-75
2021/04/20 00:27:07;;;;;;;19.00;11.10;;;9.10;99.90;;;;;;5033121;28;20028;-75
2021/04/20 00:29:32;;;;;;;16.92;10.65;;;9.20;99.90;;;;;;5026702;28;20036;-75
2021/04/20 00:31:58;;;;;;;17.35;11.50;;;9.10;99.90;;;;;;5014068;28;20026;-75
2021/04/20 00:34:24;;;;;;;20.38;11.40;;;9.10;99.90;;;;;;5014152;28;20474;-75
2021/04/20 00:36:49;;;;;;;17.85;10.50;;;9.20;99.90;;;;;;5013950;28;20030;-75
2021/04/20 00:39:15;;;;;;;17.17;11.00;;;9.10;99.90;;;;;;4996430;28;20057;-75
2021/04/20 00:41:41;;;;;;;18.13;10.90;;;9.20;99.90;;;;;;5013903;28;20029;-75
2021/04/20 00:44:06;;;;;;;19.65;11.32;;;9.20;99.90;;;;;;5013923;28;20383;-75
2021/04/20 00:46:32;;;;;;;18.73;10.88;;;9.20;99.90;;;;;;4996174;28;20034;-75
2021/04/20 00:48:58;;;;;;;19.52;11.30;;;9.10;99.90;;;;;;4996030;28;20179;-75
2021/04/20 00:51:24;;;;;;;17.05;10.80;;;9.10;99.90;;;;;;5013853;28;20041;-75
2021/04/20 00:53:49;;;;;;;15.80;10.27;;;9.10;99.90;;;;;;5024264;28;20025;-75
2021/04/20 00:56:19;;;;;;;15.85;10.82;;;9.10;99.90;;;;;;5015478;28;20052;-75
2021/04/20 00:58:46;;;;;;;15.82;10.88;;;9.10;99.90;;;;;;5019035;28;20028;-75
2021/04/20 01:01:13;;;;;;;18.23;9.88;;;9.10;99.90;;;;;;5013525;28;20061;-75
2021/04/20 01:03:39;;;;;;;17.10;10.82;;;9.10;99.90;;;;;;5013410;28;20489;-75
2021/04/20 01:06:05;;;;;;;19.58;11.20;;;9.10;99.90;;;;;;5013493;28;20050;-75
2021/04/20 01:08:33;;;;;;;17.85;11.00;;;9.00;99.90;;;;;;5013615;28;20100;-75
2021/04/20 01:11:00;;;;;;;18.90;10.95;;;9.10;99.90;;;;;;4995821;28;20069;-75
2021/04/20 01:13:28;;;;;;;18.33;10.68;;;9.10;99.90;;;;;;5014563;28;20034;-75
2021/04/20 01:15:54;;;;;;;19.20;11.15;;;9.10;99.90;;;;;;5024052;28;20026;-75
2021/04/20 01:18:29;;;;;;;16.95;11.20;;;9.20;99.90;;;;;;4995902;28;20022;-75
2021/04/20 01:21:01;;;;;;;16.08;10.65;;;9.20;99.90;;;;;;5013244;28;20014;-75
2021/04/20 01:23:51;;;;;;;19.52;10.95;;;9.10;99.90;;;;;;5012135;28;20017;-75
2021/04/20 01:26:24;;;;;;;14.80;10.35;;;9.10;99.90;;;;;;5013210;28;20478;-75
2021/04/20 01:28:50;;;;;;;22.85;12.30;;;9.10;99.90;;;;;;5011364;28;20028;-75
2021/04/20 01:31:16;;;;;;;20.77;12.45;;;9.10;99.90;;;;;;5013153;28;20021;-75
2021/04/20 01:33:44;;;;;;;19.92;11.23;;;9.00;99.90;;;;;;5014893;28;20420;-75
2021/04/20 01:36:12;;;;;;;19.52;11.63;;;9.00;99.90;;;;;;5032766;28;20038;-75
2021/04/20 01:38:44;;;;;;;16.95;10.85;;;9.00;99.90;;;;;;5015124;28;20436;-75
2021/04/20 01:41:10;;;;;;;20.88;11.02;;;9.00;99.90;;;;;;5032789;28;20024;-75
2021/04/20 01:43:36;;;;;;;18.92;11.10;;;9.00;99.90;;;;;;5032500;28;20076;-75
2021/04/20 01:46:03;;;;;;;16.67;11.23;;;9.00;99.90;;;;;;5032717;28;20017;-75
2021/04/20 01:48:29;;;;;;;23.77;11.10;;;9.00;99.90;;;;;;5031436;28;20504;-75
2021/04/20 01:50:55;;;;;;;19.73;11.98;;;9.00;99.90;;;;;;5031467;28;20022;-75
2021/04/20 01:53:21;;;;;;;21.27;12.15;;;9.00;99.90;;;;;;5031208;28;20465;-75
2021/04/20 01:55:47;;;;;;;19.00;12.00;;;9.00;99.90;;;;;;5032572;28;20032;-75
2021/04/20 01:58:17;;;;;;;15.77;10.57;;;8.90;99.90;;;;;;5031461;28;20034;-75
2021/04/20 02:00:43;;;;;;;20.45;12.05;;;8.90;99.90;;;;;;5031337;28;20479;-75
2021/04/20 02:03:09;;;;;;;18.35;11.00;;;9.00;99.90;;;;;;5032501;28;20029;-75
2021/04/20 02:05:36;;;;;;;18.65;10.77;;;8.90;99.90;;;;;;5034035;28;20022;-75
2021/04/20 02:08:03;;;;;;;17.23;11.30;;;8.90;99.90;;;;;;5052560;28;20021;-75
2021/04/20 02:10:29;;;;;;;17.02;11.13;;;8.80;99.90;;;;;;5035866;28;20112;-75
2021/04/20 02:12:55;;;;;;;18.52;10.93;;;8.80;99.90;;;;;;5032466;28;20121;-75
2021/04/20 02:15:21;;;;;;;16.55;10.77;;;8.80;99.90;;;;;;5032118;28;20505;-75
2021/04/20 02:17:48;;;;;;;17.00;10.63;;;8.70;99.90;;;;;;5014679;28;20029;-75
2021/04/20 02:20:15;;;;;;;18.02;9.75;;;8.70;99.90;;;;;;5014710;28;20025;-75
2021/04/20 02:22:47;;;;;;;14.82;9.80;;;8.80;99.90;;;;;;5032503;28;20028;-75
2021/04/20 02:25:18;;;;;;;17.50;10.73;;;8.80;99.90;;;;;;5014652;28;20045;-75
2021/04/20 02:27:47;;;;;;;15.20;10.13;;;8.70;99.90;;;;;;5032337;28;20025;-75
2021/04/20 02:30:14;;;;;;;16.73;10.13;;;8.70;99.90;;;;;;5014601;28;20588;-75
2021/04/20 02:32:40;;;;;;;14.30;9.20;;;8.70;99.90;;;;;;5011797;28;20056;-75
2021/04/20 02:35:13;;;;;;;15.77;9.98;;;8.70;99.90;;;;;;4995129;28;20041;-75
2021/04/20 02:37:39;;;;;;;;;;;8.70;99.90;;;;;;5019277;28;20026;-75
2021/04/20 02:40:07;;;;;;;14.93;9.40;;;8.70;99.90;;;;;;5034489;28;19905;-75
2021/04/20 02:42:34;;;;;;;16.13;9.50;;;8.70;99.90;;;;;;5035875;28;20025;-75
2021/04/20 02:45:02;;;;;;;18.90;10.10;;;8.70;99.90;;;;;;5018000;28;20083;-75
2021/04/20 02:47:29;;;;;;;12.70;9.02;;;8.70;99.90;;;;;;5035776;28;20108;-75
2021/04/20 02:49:55;;;;;;;15.52;9.45;;;8.70;99.90;;;;;;5017946;28;20029;-75
2021/04/20 02:52:22;;;;;;;14.60;9.63;;;8.80;99.90;;;;;;5035742;28;20428;-75
2021/04/20 02:54:48;;;;;;;16.50;9.95;;;8.70;99.90;;;;;;5035357;28;20109;-75
2021/04/20 02:57:15;;;;;;;14.75;9.25;;;8.70;99.90;;;;;;5035649;28;20061;-75
2021/04/20 02:59:42;;;;;;;15.15;9.57;;;8.70;99.90;;;;;;5024021;28;20060;-75
2021/04/20 03:02:10;;;;;;;11.95;8.60;;;8.70;99.90;;;;;;4998180;28;20022;-75
2021/04/20 03:04:37;;;;;;;14.73;9.10;;;8.60;99.90;;;;;;5020763;28;20044;-75
2021/04/20 03:07:03;;;;;;;15.07;9.38;;;8.60;99.90;;;;;;5034914;28;20409;-75
2021/04/20 03:09:29;;;;;;;15.77;9.55;;;8.60;99.90;;;;;;5035630;28;20123;-75
2021/04/20 03:11:57;;;;;;;12.45;8.52;;;8.50;99.90;;;;;;5035331;28;20025;-74
2021/04/20 03:14:24;;;;;;;13.15;8.30;;;8.50;99.90;;;;;;5023868;28;20026;-75
2021/04/20 03:16:50;;;;;;;13.70;8.80;;;8.50;99.90;;;;;;4997793;28;20056;-75
2021/04/20 03:19:17;;;;;;;14.27;8.85;;;8.50;99.90;;;;;;4997805;28;20025;-75
2021/04/20 03:21:44;;;;;;;15.73;8.55;;;8.50;99.90;;;;;;4997769;28;20384;-75
2021/04/20 03:24:31;;;;;;;12.68;8.38;;;8.50;99.90;;;;;;5015616;28;20363;-75
2021/04/20 03:26:57;;;;;;;12.57;8.80;;;8.50;99.90;;;;;;4997628;28;20025;-75
2021/04/20 03:29:24;;;;;;;12.93;8.52;;;8.50;99.90;;;;;;5015273;28;20416;-75
2021/04/20 03:31:50;;;;;;;11.95;8.55;;;8.60;99.90;;;;;;5021232;28;20030;-75
2021/04/20 03:34:22;;;;;;;16.98;8.15;;;8.60;99.90;;;;;;5003658;28;20385;-75
2021/04/20 03:36:58;;;;;;;10.38;7.95;;;8.50;99.90;;;;;;4998646;28;20060;-75
2021/04/20 03:39:26;;;;;;;12.30;7.95;;;8.50;99.90;;;;;;5034988;28;20117;-75
2021/04/20 03:41:51;;;;;;;17.00;8.93;;;8.50;99.90;;;;;;5035039;28;20018;-75
2021/04/20 03:44:55;;;;;;;12.25;8.15;;;8.50;99.90;;;;;;5034987;28;20373;-75
2021/04/20 03:47:42;;;;;;;12.35;8.05;;;8.50;99.90;;;;;;5033113;28;20031;-75
2021/04/20 03:50:18;;;;;;;12.32;8.45;;;8.40;99.90;;;;;;5034694;28;20025;-75
2021/04/20 03:52:58;;;;;;;13.20;9.05;;;8.40;99.90;;;;;;5034121;28;20036;-76
2021/04/20 03:55:30;;;;;;;14.00;8.13;;;8.40;99.90;;;;;;5016952;28;20036;-75
2021/04/20 03:57:57;;;;;;;12.82;9.07;;;8.40;99.90;;;;;;5034564;28;20507;-75
2021/04/20 04:00:25;;;;;;;12.32;6.93;;;8.40;99.90;;;;;;5034489;28;20025;-75
2021/04/20 04:02:54;;;;;;;12.38;7.35;;;8.40;99.90;;;;;;5034657;28;20056;-75
2021/04/20 04:05:25;;;;;;;13.50;8.25;;;8.40;99.90;;;;;;5034032;28;20033;-75
2021/04/20 04:07:53;;;;;;;11.13;7.78;;;8.30;99.90;;;;;;5034300;28;20120;-75
2021/04/20 04:10:20;;;;;;;11.55;7.60;;;8.30;99.90;;;;;;5016634;28;20129;-75
2021/04/20 04:12:53;;;;;;;9.25;7.10;;;8.40;99.90;;;;;;5034335;28;20422;-75
2021/04/20 04:15:22;;;;;;;10.48;7.90;;;8.30;99.90;;;;;;5034292;28;20048;-76
2021/04/20 04:17:49;;;;;;;9.02;6.80;;;8.30;99.90;;;;;;5016311;28;20032;-76
2021/04/20 04:20:18;;;;;;;12.43;8.07;;;8.30;99.90;;;;;;5016486;28;20044;-75
2021/04/20 04:22:58;;;;;;;12.15;7.80;;;8.30;99.90;;;;;;5015781;28;20079;-75
2021/04/20 04:25:33;;;;;;;11.30;6.72;;;8.30;99.90;;;;;;5007580;28;20359;-74
2021/04/20 04:28:01;;;;;;;11.05;7.78;;;8.30;99.90;;;;;;5033537;28;20017;-75
2021/04/20 04:30:32;;;;;;;9.55;7.38;;;8.30;99.90;;;;;;5033779;28;20022;-75
2021/04/20 04:33:01;;;;;;;11.68;7.30;;;8.30;99.90;;;;;;5033347;28;20017;-75
2021/04/20 04:35:28;;;;;;;11.35;7.85;;;8.40;99.90;;;;;;5033291;28;20022;-75
2021/04/20 04:37:54;;;;;;;15.93;8.10;;;8.40;99.90;;;;;;5033275;28;20022;-75
2021/04/20 04:40:21;;;;;;;9.73;7.22;;;8.40;99.90;;;;;;5031884;28;20021;-75
2021/04/20 04:42:47;;;;;;;16.33;7.15;;;8.40;99.90;;;;;;5033650;28;20024;-75
2021/04/20 04:45:13;;;;;;;10.27;7.80;;;8.40;99.90;;;;;;5033188;28;20025;-74
2021/04/20 04:47:39;;;;;;;15.82;8.13;;;8.40;99.90;;;;;;5015455;28;20034;-75
2021/04/20 04:50:08;;;;;;;9.95;7.13;;;8.40;99.90;;;;;;5015682;28;20025;-75
2021/04/20 04:52:35;;;;;;;9.35;6.82;;;8.40;99.90;;;;;;5015826;28;20025;-75
2021/04/20 04:55:03;;;;;;;11.02;6.85;;;8.40;99.90;;;;;;5011886;28;20034;-75
2021/04/20 04:57:29;;;;;;;12.00;6.95;;;8.40;99.90;;;;;;5013409;28;20441;-75
2021/04/20 05:00:05;;;;;;;9.75;7.07;;;8.50;99.90;;;;;;5013686;28;20084;-75
2021/04/20 05:02:32;;;;;;;10.02;7.13;;;8.50;99.90;;;;;;5021374;28;20018;-75
2021/04/20 05:05:06;;;;;;;10.95;7.10;;;8.50;99.90;;;;;;5030051;28;20478;-75
2021/04/20 05:07:32;;;;;;;8.15;6.10;;;8.60;99.90;;;;;;5027405;28;20042;-75
2021/04/20 05:10:04;;;;;;;9.75;6.72;;;8.60;99.90;;;;;;5027874;28;20022;-75
2021/04/20 05:12:35;;;;;;;9.02;6.68;;;8.60;99.90;;;;;;5013432;28;20060;-75
2021/04/20 05:15:05;;;;;;;7.63;5.80;;;8.70;99.90;;;;;;4995556;28;20087;-75
2021/04/20 05:17:31;;;;;;;10.60;6.72;;;8.70;99.90;;;;;;5013427;28;20040;-75
2021/04/20 05:19:57;;;;;;;9.23;6.60;;;8.70;99.90;;;;;;4995722;28;20025;-75
2021/04/20 05:22:23;;;;;;;7.97;6.32;;;8.80;99.90;;;;;;5023853;28;20507;-80
2021/04/20 05:24:49;;;;;;;7.45;5.82;;;8.80;99.90;;;;;;5001096;28;20485;-80
2021/04/20 05:27:14;;;;;;;9.23;6.38;;;8.80;99.90;;;;;;5013466;28;20045;-80
2021/04/20 05:29:40;;;;;;;8.55;6.70;;;8.90;99.90;;;;;;4995738;28;20091;-80
2021/04/20 05:32:08;;;;;;;7.82;5.72;;;8.90;99.90;;;;;;5013172;28;20018;-80
2021/04/20 05:34:34;;;;;;;10.80;7.10;;;9.00;99.90;;;;;;5017691;28;20026;-80
2021/04/20 05:37:00;;;;;;;8.82;5.85;;;9.00;99.90;;;;;;5012806;28;20503;-80
2021/04/20 05:39:26;;;;;;;7.28;5.85;;;9.10;99.90;;;;;;5013185;28;20018;-80
2021/04/20 05:41:52;;;;;;;7.80;5.50;;;9.20;99.70;;;;;;4995474;28;20532;-80
2021/04/20 05:44:18;;;;;;;17.80;8.25;;;9.20;99.80;;;;;;4995649;28;20108;-81
2021/04/20 05:46:46;;;;;;;13.35;7.60;;;9.20;99.90;;;;;;5012938;28;20481;-81
2021/04/20 05:49:13;;;;;;;10.65;7.82;;;9.20;99.90;;;;;;5013129;28;20088;-80
2021/04/20 05:51:40;;;;;;;17.48;8.90;;;9.10;99.90;;;;;;5013039;28;20421;-80
2021/04/20 05:54:09;;;;;;;14.27;9.50;;;9.20;99.90;;;;;;5013062;28;20080;-80
2021/04/20 05:56:36;;;;;;;20.83;11.02;;;9.20;99.90;;;;;;5012928;28;20029;-81
2021/04/20 05:59:04;;;;;;;19.58;11.43;;;9.30;99.90;;;;;;5012809;28;20029;-81
2021/04/20 06:01:33;;;;;;;23.80;14.10;;;9.30;99.90;;;;;;5012758;28;20489;-81
2021/04/20 06:03:59;;;;;;;26.95;14.07;;;9.40;99.90;;;;;;5012449;28;20022;-75
2021/04/20 06:06:25;;;;;;;27.77;15.40;;;9.20;99.90;;;;;;5011630;28;20056;-75
2021/04/20 06:08:54;;;;;;;28.73;15.27;;;9.30;99.90;;;;;;4994527;28;20109;-81
2021/04/20 06:11:21;;;;;;;28.63;16.48;;;9.30;99.90;;;;;;4992283;28;20113;-81
2021/04/20 06:13:47;;;;;;;27.98;16.23;;;9.40;99.90;;;;;;5009679;28;20030;-81
2021/04/20 06:16:13;;;;;;;32.38;16.33;;;9.50;99.90;;;;;;5013243;28;20520;-81
2021/04/20 06:18:41;;;;;;;30.27;17.05;;;9.50;99.90;;;;;;4996706;28;20064;-81
2021/04/20 06:21:08;;;;;;;28.38;14.82;;;9.50;99.90;;;;;;4997835;28;20036;-80
2021/04/20 06:23:36;;;;;;;24.83;14.23;;;9.60;99.90;;;;;;4997529;28;20026;-80
2021/04/20 06:26:04;;;;;;;29.33;14.77;;;9.60;99.90;;;;;;5015110;28;20109;-80
2021/04/20 06:28:31;;;;;;;27.58;15.48;;;9.70;99.90;;;;;;5015234;28;20025;-80
2021/04/20 06:31:02;;;;;;;28.20;15.57;;;9.70;99.90;;;;;;5015995;28;20014;-80
2021/04/20 06:33:32;;;;;;;28.25;15.45;;;9.70;99.90;;;;;;4997964;28;20026;-80
2021/04/20 06:36:01;;;;;;;29.88;15.18;;;9.80;99.90;;;;;;5015566;28;20037;-80
2021/04/20 06:38:28;;;;;;;28.50;14.88;;;9.80;99.90;;;;;;5016252;28;19929;-80
2021/04/20 06:40:56;;;;;;;27.73;14.45;;;9.90;99.90;;;;;;5033902;28;20385;-80
2021/04/20 06:43:48;;;;;;;26.02;14.77;;;9.90;99.90;;;;;;5016572;28;20492;-80
2021/04/20 06:46:20;;;;;;;26.77;14.85;;;9.90;99.90;;;;;;5008293;28;20542;-80
2021/04/20 06:48:52;;;;;;;28.00;14.95;;;10.00;99.90;;;;;;5016339;28;20021;-80
2021/04/20 06:51:36;;;;;;;25.00;15.15;;;10.00;99.90;;;;;;5035179;28;20022;-80
2021/04/20 06:54:23;;;;;;;24.98;14.23;;;10.00;99.90;;;;;;5018108;28;20026;-81
2021/04/20 06:56:54;;;;;;;27.83;13.85;;;10.10;99.90;;;;;;5035597;28;20696;-80
2021/04/20 07:00:14;;;;;;;10.32;6.80;;;10.10;99.90;;;;;;5035035;28;20119;-77
2021/04/20 07:03:02;;;;;;;14.93;9.70;;;10.50;99.90;;;;;;4954038;28;20031;-76
2021/04/20 07:05:40;;;;;;;21.65;12.43;;;10.90;99.90;;;;;;5030679;28;20427;-75
2021/04/20 07:08:22;;;;;;;21.20;12.45;;;11.00;99.90;;;;;;5016852;28;20532;-76
2021/04/20 07:10:49;;;;;;;19.90;11.73;;;10.80;99.60;;;;;;5033927;28;20030;-76
2021/04/20 07:13:25;;;;;;;22.42;12.82;;;10.70;99.70;;;;;;5014983;28;20249;-76
2021/04/20 07:16:26;;;;;;;22.65;12.75;;;10.60;99.60;;;;;;5032981;28;20033;-76
2021/04/20 07:19:29;;;;;;;23.80;12.65;;;10.50;99.90;;;;;;5001766;28;20492;-76
2021/04/20 07:22:37;;;;;;;24.73;12.93;;;10.60;99.90;;;;;;5033679;28;20029;-76
2021/04/20 07:25:06;;;;;;;25.10;12.50;;;10.60;99.90;;;;;;5033604;28;20041;-76
2021/04/20 07:27:42;;;;;;;28.33;12.32;;;10.60;99.90;;;;;;5015268;28;20112;-76
2021/04/20 07:30:45;;;;;;;22.08;13.32;;;10.60;99.90;;;;;;5033723;28;20116;-76
2021/04/20 07:33:32;;;;;;;25.05;13.60;;;10.70;99.90;;;;;;5032736;28;20256;-76
2021/04/20 07:36:32;;;;;;;22.05;13.40;;;10.70;99.70;;;;;;5033245;28;20061;-76
2021/04/20 07:39:20;;;;;;;22.85;12.32;;;10.70;99.90;;;;;;5004880;28;20079;-76
2021/04/20 07:42:11;;;;;;;25.02;13.20;;;10.80;99.90;;;;;;5010959;28;20385;-76
2021/04/20 07:44:44;;;;;;;23.20;13.45;;;10.80;99.70;;;;;;5009162;28;20484;-76
2021/04/20 07:47:13;;;;;;;22.10;13.07;;;10.90;99.70;;;;;;5034103;28;20091;-76
2021/04/20 07:50:00;;;;;;;25.60;13.80;;;10.90;99.90;;;;;;5014750;28;20036;-76
2021/04/20 07:52:30;;;;;;;25.27;13.10;;;11.00;99.90;;;;;;5005711;28;20497;-75
2021/04/20 07:55:16;;;;;;;21.10;13.27;;;11.00;99.90;;;;;;5021710;28;20041;-76
2021/04/20 07:58:01;;;;;;;25.95;14.68;;;11.00;99.80;;;;;;5022189;28;20053;-76
2021/04/20 08:00:36;;;;;;;22.90;14.23;;;11.10;99.90;;;;;;5026757;28;20482;-76
2021/04/20 08:03:07;;;;;;;25.67;14.27;;;11.20;99.90;;;;;;5031272;28;20044;-76
2021/04/20 08:05:51;;;;;;;21.95;14.05;;;11.20;99.90;;;;;;5015605;28;20030;-77
2021/04/20 08:08:26;;;;;;;23.02;14.05;;;11.30;99.90;;;;;;5033737;28;20037;-77
2021/04/20 08:10:59;;;;;;;24.23;13.10;;;11.30;99.90;;;;;;5028854;28;20033;-77
2021/04/20 08:13:30;;;;;;;24.60;14.32;;;11.40;99.90;;;;;;5033488;28;20033;-77
2021/04/20 08:16:14;;;;;;;27.92;14.40;;;11.50;99.90;;;;;;5033491;28;20534;-77
2021/04/20 08:19:00;;;;;;;23.10;13.35;;;11.50;99.90;;;;;;5033326;28;20392;-77
2021/04/20 08:21:29;;;;;;;22.38;13.07;;;11.60;99.90;;;;;;5015838;28;20105;-77
2021/04/20 08:23:57;;;;;;;20.48;13.40;;;11.50;99.40;;;;;;5032868;28;20087;-77
2021/04/20 08:26:29;;;;;;;21.75;13.70;;;11.60;99.70;;;;;;5016342;28;20033;-77
2021/04/20 08:29:02;;;;;;;21.45;12.93;;;11.70;99.40;;;;;;5033329;28;20659;-78
2021/04/20 08:31:33;;;;;;;18.27;12.38;;;11.70;99.00;;;;;;5033307;28;20436;-77
2021/04/20 08:34:17;;;;;;;19.17;12.15;;;11.90;99.30;;;;;;5033328;28;20030;-77
2021/04/20 08:37:02;;;;;;;22.88;12.93;;;11.90;98.80;;;;;;5032732;28;20030;-78
2021/04/20 08:39:36;;;;;;;25.73;12.60;;;12.00;98.70;;;;;;5015422;28;20059;-77
2021/04/20 08:42:29;;;;;;;19.60;12.43;;;12.10;99.80;;;;;;5032591;28;20017;-77
2021/04/20 08:45:04;;;;;;;;;;;12.20;99.30;;;;;;5033745;28;20382;-77
2021/04/20 08:47:49;;;;;;;20.05;11.18;;;12.20;99.50;;;;;;5015702;28;19911;-77
2021/04/20 08:50:21;;;;;;;20.25;12.35;;;12.30;98.80;;;;;;5033055;28;20369;-77
2021/04/20 08:53:04;;;;;;;22.43;11.37;;;12.40;97.70;;;;;;5015490;28;20034;-77
2021/04/20 08:55:46;;;;;;;20.45;12.20;;;12.40;96.90;;;;;;5015081;28;20029;-77
2021/04/20 08:58:35;;;;;;;21.08;11.77;;;12.50;97.10;;;;;;5030600;28;20033;-77
2021/04/20 09:01:25;;;;;;;18.23;10.65;;;12.50;96.10;;;;;;5032885;28;20052;-77
2021/04/20 09:04:03;;;;;;;18.02;11.23;;;12.50;97.20;;;;;;5026696;28;20022;-77
2021/04/20 09:06:40;;;;;;;17.63;11.93;;;12.70;96.60;;;;;;5032540;28;20099;-77
2021/04/20 09:09:07;;;;;;;18.13;11.57;;;12.80;96.50;;;;;;5032431;28;20029;-77
2021/04/20 09:11:45;;;;;;;16.80;11.00;;;12.80;96.40;;;;;;5032085;28;20153;-78
2021/04/20 09:14:27;;;;;;;17.15;11.25;;;12.80;96.40;;;;;;5010111;28;20044;-78
2021/04/20 09:17:20;;;;;;;17.13;11.00;;;12.80;96.50;;;;;;5029124;28;20092;-77
2021/04/20 09:19:56;;;;;;;17.17;11.70;;;12.90;95.90;;;;;;5013587;28;20021;-77
2021/04/20 09:22:55;;;;;;;18.98;12.18;;;12.90;96.60;;;;;;5030533;28;20022;-76
2021/04/20 09:25:31;;;;;;;17.50;10.88;;;13.10;97.40;;;;;;5007867;28;20163;-76
2021/04/20 09:28:15;;;;;;;22.50;13.52;;;13.10;97.10;;;;;;5014752;28;20025;-76
2021/04/20 09:30:54;;;;;;;20.13;12.43;;;13.10;96.30;;;;;;5033205;28;20434;-77
2021/04/20 09:33:41;;;;;;;20.08;12.07;;;13.10;96.20;;;;;;5031972;28;20472;-76
2021/04/20 09:36:10;;;;;;;21.73;11.93;;;13.10;97.30;;;;;;5017744;28;20084;-77
2021/04/20 09:38:47;;;;;;;15.77;10.65;;;13.30;98.30;;;;;;5029971;28;20048;-75
2021/04/20 09:41:14;;;;;;;16.75;10.70;;;13.40;97.40;;;;;;5031464;28;20334;-75
2021/04/20 09:43:59;;;;;;;14.73;10.25;;;13.60;96.60;;;;;;5027681;28;20045;-75
2021/04/20 09:46:48;;;;;;;20.48;11.63;;;13.90;95.00;;;;;;5023657;28;20639;-75
2021/04/20 09:49:25;;;;;;;17.70;10.40;;;13.90;95.00;;;;;;5030800;28;20137;-76
2021/04/20 09:52:02;;;;;;;15.05;9.35;;;14.10;94.20;;;;;;5022531;28;20386;-75
2021/04/20 09:54:35;;;;;;;14.15;9.30;;;14.20;93.80;;;;;;5025603;28;20369;-75
2021/04/20 09:57:07;;;;;;;15.57;10.32;;;14.30;93.70;;;;;;5027851;28;20489;-75
2021/04/20 09:59:49;;;;;;;14.05;9.10;;;14.50;93.80;;;;;;5032038;28;20032;-75
2021/04/20 10:02:14;;;;;;;;;;;14.70;91.40;;;;;;5025197;28;20013;-75
2021/04/20 10:04:40;;;;;;;10.73;7.15;;;14.60;91.30;;;;;;5013643;28;19908;-77
2021/04/20 10:07:44;;;;;;;9.52;7.05;;;14.90;91.70;;;;;;5012155;28;20049;-77
2021/04/20 10:10:13;;;;;;;14.25;8.30;;;15.00;87.70;;;;;;4989683;28;20041;-75
2021/04/20 10:12:57;;;;;;;12.00;8.57;;;15.10;89.00;;;;;;5023594;28;20032;-75
2021/04/20 10:15:31;;;;;;;15.98;8.23;;;15.30;91.10;;;;;;5026084;28;20033;-75
2021/04/20 10:18:23;;;;;;;10.27;8.00;;;15.10;88.40;;;;;;5008051;28;20496;-75
2021/04/20 10:21:14;;;;;;;15.65;7.80;;;15.20;86.10;;;;;;5024031;28;20021;-75
2021/04/20 10:23:51;;;;;;;12.63;7.00;;;15.40;88.00;;;;;;5008952;28;20041;-75
2021/04/20 10:26:22;;;;;;;9.02;7.13;;;15.50;86.30;;;;;;5006292;28;20036;-75
2021/04/20 10:29:24;;;;;;;10.60;7.53;;;15.60;87.30;;;;;;5025799;28;20025;-75
2021/04/20 10:31:57;;;;;;;11.43;6.85;;;15.50;84.30;;;;;;5023323;28;20044;-75
2021/04/20 10:34:24;;;;;;;8.95;5.72;;;15.70;81.50;;;;;;5027767;28;20030;-75
2021/04/20 10:36:55;;;;;;;9.98;6.38;;;15.90;80.00;;;;;;5031341;28;20065;-75
2021/04/20 10:39:25;;;;;;;17.63;6.60;;;15.80;76.70;;;;;;5031988;28;20057;-75
2021/04/20 10:41:53;;;;;;;8.02;6.05;;;15.90;75.80;;;;;;5022577;28;20033;-75
2021/04/20 10:44:23;;;;;;;11.85;5.45;;;15.70;72.70;;;;;;5028059;28;20018;-75
2021/04/20 10:46:53;;;;;;;7.38;5.18;;;15.80;77.70;;;;;;5028000;28;20095;-75
2021/04/20 10:49:22;;;;;;;7.53;5.20;;;16.00;73.20;;;;;;5023736;28;20033;-75
2021/04/20 10:51:57;;;;;;;8.95;5.68;;;16.20;73.80;;;;;;5012438;28;20392;-76
2021/04/20 10:54:28;;;;;;;10.57;5.43;;;16.40;72.30;;;;;;5011891;28;20040;-75
2021/04/20 10:56:56;;;;;;;6.68;4.90;;;16.50;72.40;;;;;;5031422;28;20026;-76
2021/04/20 10:59:54;;;;;;;9.65;5.32;;;16.60;73.70;;;;;;5031289;28;20029;-75
2021/04/20 11:02:22;;;;;;;6.38;4.35;;;16.70;69.90;;;;;;5031023;28;20037;-75
2021/04/20 11:04:52;;;;;;;6.53;4.00;;;16.80;68.10;;;;;;5016043;28;20494;-76
2021/04/20 11:07:28;;;;;;;4.40;3.63;;;16.80;62.40;;;;;;5033775;28;20071;-75
2021/04/20 11:10:01;;;;;;;4.63;3.50;;;16.80;59.70;;;;;;5028573;28;20026;-75
2021/04/20 11:12:27;;;;;;;5.93;4.35;;;16.80;59.90;;;;;;5014899;28;20120;-75
2021/04/20 11:14:55;;;;;;;5.15;3.58;;;16.90;63.20;;;;;;5016280;28;20061;-75
2021/04/20 11:17:41;;;;;;;6.30;4.50;;;17.00;60.00;;;;;;5031706;28;20056;-75
2021/04/20 11:20:14;;;;;;;3.83;3.53;;;17.10;63.20;;;;;;5028818;28;20032;-75
2021/04/20 11:22:46;;;;;;;5.78;4.10;;;17.20;61.80;;;;;;5034621;28;20481;-75
2021/04/20 11:25:35;;;;;;;7.78;4.57;;;17.40;59.80;;;;;;5027090;28;20022;-75
2021/04/20 11:28:07;;;;;;;9.48;4.85;;;17.30;57.80;;;;;;5034097;28;20044;-75
2021/04/20 11:30:35;;;;;;;9.13;4.57;;;17.30;54.80;;;;;;5034522;28;20018;-75
2021/04/20 11:33:08;;;;;;;9.50;5.95;;;17.30;56.60;;;;;;5033085;28;20037;-75
2021/04/20 11:35:41;;;;;;;12.32;6.28;;;17.30;55.00;;;;;;5033736;28;20080;-75
2021/04/20 11:38:10;;;;;;;14.68;7.82;;;17.40;57.60;;;;;;5016362;28;20025;-75
2021/04/20 11:40:38;;;;;;;14.05;7.35;;;17.60;57.20;;;;;;5033743;28;20420;-75
2021/04/20 11:43:05;;;;;;;13.43;6.22;;;17.80;57.70;;;;;;5025096;28;20029;-75
2021/04/20 11:45:37;;;;;;;16.15;8.43;;;17.90;57.00;;;;;;5034019;28;20021;-75
2021/04/20 11:48:09;;;;;;;17.15;9.32;;;18.10;57.50;;;;;;5027089;28;20102;-75
2021/04/20 11:50:37;;;;;;;23.83;10.45;;;18.20;56.90;;;;;;5034418;28;20515;-75
2021/04/20 11:53:05;;;;;;;22.52;9.02;;;18.20;52.80;;;;;;5033939;28;20527;-75
2021/04/20 11:55:45;;;;;;;16.60;8.70;;;18.10;53.80;;;;;;5032890;28;20025;-75
2021/04/20 11:58:26;;;;;;;12.80;7.28;;;18.30;54.90;;;;;;5031647;28;20095;-75
2021/04/20 12:00:58;;;;;;;12.10;6.80;;;18.50;53.80;;;;;;5033493;28;20128;-75
2021/04/20 12:03:25;;;;;;;16.08;7.68;;;18.80;54.30;;;;;;5015522;28;20256;-76
2021/04/20 12:05:55;;;;;;;18.17;8.27;;;18.60;50.60;;;;;;5028658;28;20056;-75
2021/04/20 12:08:25;;;;;;;14.98;8.05;;;18.80;53.20;;;;;;5033396;28;20037;-75
2021/04/20 12:10:52;;;;;;;15.50;7.97;;;18.90;54.20;;;;;;5015622;28;20531;-75
2021/04/20 12:13:44;;;;;;;15.27;8.00;;;18.90;50.50;;;;;;5032925;28;20420;-75
2021/04/20 12:16:11;;;;;;;17.58;8.38;;;18.90;48.10;;;;;;5015544;28;20033;-77
2021/04/20 12:18:37;;;;;;;13.98;7.95;;;18.90;48.70;;;;;;5033568;28;20029;-77
2021/04/20 12:21:09;;;;;;;19.52;7.70;;;19.00;47.50;;;;;;5033785;28;20056;-77
2021/04/20 12:23:39;;;;;;;13.40;7.03;;;19.10;50.40;;;;;;5033651;28;20023;-77
2021/04/20 12:26:06;;;;;;;14.90;6.97;;;19.30;46.80;;;;;;5033144;28;20503;-76
2021/04/20 12:28:39;;;;;;;16.83;7.93;;;19.40;46.50;;;;;;5033594;28;20055;-77
2021/04/20 12:31:05;;;;;;;14.77;8.25;;;19.50;45.70;;;;;;5033172;28;20025;-77
2021/04/20 12:33:32;;;;;;;15.77;6.88;;;19.50;45.40;;;;;;5033158;28;20048;-77
2021/04/20 12:36:00;;;;;;;17.55;6.50;;;19.60;46.30;;;;;;5016003;28;20447;-77
2021/04/20 12:38:31;;;;;;;14.82;7.38;;;19.70;45.40;;;;;;5034548;28;20031;-76
2021/04/20 12:41:02;;;;;;;15.03;7.20;;;19.80;44.10;;;;;;5029136;28;20171;-76
2021/04/20 12:43:31;;;;;;;13.43;6.28;;;19.80;43.90;;;;;;5032756;28;20109;-76
2021/04/20 12:46:18;;;;;;;11.82;6.85;;;19.60;43.30;;;;;;5031874;28;20021;-76
2021/04/20 12:48:46;;;;;;;12.32;6.80;;;19.80;43.00;;;;;;5013814;28;20060;-77
2021/04/20 12:51:20;;;;;;;15.35;6.43;;;19.90;42.90;;;;;;5033189;28;20029;-77
2021/04/20 12:53:47;;;;;;;10.52;5.80;;;20.00;44.80;;;;;;5028249;28;20030;-77
2021/04/20 12:56:33;;;;;;;9.18;5.38;;;20.20;44.90;;;;;;5033017;28;20037;-77
2021/04/20 12:59:02;;;;;;;11.25;5.75;;;20.20;43.50;;;;;;5023569;28;20045;-77
2021/04/20 13:01:29;;;;;;;7.95;5.50;;;20.20;42.50;;;;;;5030707;28;20025;-77
2021/04/20 13:03:55;;;;;;;13.48;7.10;;;20.30;43.30;;;;;;5012038;28;20431;-77
2021/04/20 13:06:23;;;;;;;12.48;6.15;;;20.30;42.90;;;;;;5026409;28;20046;-77